Webcam op het Zuiden Meer informatie Webcam op het Zuiden


Webcam op het Westen Meer informatie Webcam op het Westen


Onweer radar Meer informatie blitzortung!


Regen radar  rain snow radar


Lokaal brand risico:
CBI


Regionaal brand risico: Meer informatie


Lokaal brand risico:
Gebaseerd op actuele waarde
CBI


Bezoek ook deze websites:

Template documentation
and downloads

And another site



Het weer levert geen direct gevaar op.    Er zijn geen waarschuwingen afgegeven.

METAR rapporten vliegvelden

   
ETWM - Meppen, Germany
Afstand tot: O 29 km
Gewijzigd: 17-09-2021 12:20
Grotendeels bewolkt  
Grotendeels bewolkt  
   Wind: WZW 7.4 km/h
Wind: WZW 7.4 km/h
Temperatuur: 17°C
Dauwpunt: 15°C
Vochtigheid: 88%
Barometer: 1015 hPa
Bewolking: Grotendeels bewolkt
Zicht: meer dan 10 km
Bewolking: Licht bewolkt 1200 ft,
Grotendeels bewolkt 5700 ft,
Grotendeels bewolkt 7800 ft
ETWM 171020Z 24004KT 9999 FEW012 BKN057 BKN078 17/15 Q1015 BLU
EHGG - Groningen/Eelde, Netherlands
Afstand tot: NNW 47 km
Gewijzigd: 17-09-2021 12:25
Gedeeltelijk bewolkt  
Gedeeltelijk bewolkt  
   Wind: varieert 1.9 km/h
Wind: varieert 1.9 km/h
Temperatuur: 18°C
Dauwpunt: 14°C
Vochtigheid: 78%
Barometer: 1015 hPa
Bewolking: Gedeeltelijk bewolkt
Zicht: meer dan 10 km
Bewolking: Licht bewolkt 1300 ft,
Gedeeltelijk bewolkt 1600 ft
EHGG 171025Z AUTO VRB01KT 9999 FEW013 SCT016 18/14 Q1015 NOSIG
EDDG - Muenster/Osnabru, Germany
Afstand tot: ZO 87 km
Gewijzigd: 17-09-2021 12:20
Grotendeels bewolkt  
Grotendeels bewolkt  
   Wind: varieert 1.9 km/h
Wind: varieert 1.9 km/h
Temperatuur: 17°C
Dauwpunt: 14°C
Vochtigheid: 83%
Barometer: 1016 hPa
Bewolking: Grotendeels bewolkt
Zicht: 8 km
Bewolking: Grotendeels bewolkt 1000 ft
EDDG 171020Z VRB01KT 8000 BKN010 17/14 Q1016 BECMG SCT015 BKN030
EHLW - Leeuwarden Rnlaf, Netherlands
Afstand tot: NW 93 km
Gewijzigd: 17-09-2021 12:25
Bewolking  
Bewolking  
   Wind: varieert 1.9 km/h
Wind: varieert 1.9 km/h
Temperatuur: 18°C
Dauwpunt: 15°C
Vochtigheid: 83%
Barometer: 1016 hPa
Bewolking: Bewolking
Zicht: meer dan 10 km
Bewolking: Grotendeels bewolkt 1600 ft,
Bewolking 2000 ft
EHLW 171025Z AUTO VRB01KT 9999 BKN016 OVC020 18/15 Q1016 WHT BECMG SCT019
ETNT - Wittmundhaven(Ga, Germany
Afstand tot: NNO 100 km
Gewijzigd: 17-09-2021 12:20
Grotendeels bewolkt  
Grotendeels bewolkt  
   Wind: Noorden 11.1 km/h
Wind: Noorden 11.1 km/h
Temperatuur: 17°C
Dauwpunt: 11°C
Vochtigheid: 68%
Barometer: 1015 hPa
Bewolking: Grotendeels bewolkt
Zicht: meer dan 10 km
Bewolking: Gedeeltelijk bewolkt 2200 ft,
Grotendeels bewolkt 5000 ft
ETNT 171020Z 36006KT 9999 SCT022 BKN050 17/11 Q1015 BLU BLU+ TEMPO WHT
ETND - Diepholz (ger-Af, Germany
Afstand tot: O 104 km
Gewijzigd: 17-09-2021 11:20
Verouderd
Grotendeels bewolkt  
Grotendeels bewolkt  
   Wind: WNW 5.6 km/h
Wind: WNW 5.6 km/h
Temperatuur: 16°C
Dauwpunt: 13°C
Vochtigheid: 83%
Barometer: 1016 hPa
Bewolking: Grotendeels bewolkt
Zicht: meer dan 10 km
Bewolking: Licht bewolkt 700 ft,
Gedeeltelijk bewolkt 2200 ft,
Grotendeels bewolkt 7000 ft
ETND 170920Z 30003KT 9999 FEW007 SCT022 BKN070 16/13 Q1016 BLU
ETNT - Wittmundhaven(Ga, Germany
Afstand tot: NNO 102 km
Gewijzigd: 17-09-2021 12:20
Grotendeels bewolkt  
Grotendeels bewolkt  
   Wind: Noorden 11.1 km/h
Wind: Noorden 11.1 km/h
Temperatuur: 17°C
Dauwpunt: 11°C
Vochtigheid: 68%
Barometer: 1015 hPa
Bewolking: Grotendeels bewolkt
Zicht: meer dan 10 km
Bewolking: Gedeeltelijk bewolkt 2200 ft,
Grotendeels bewolkt 5000 ft
ETNT 171020Z 36006KT 9999 SCT022 BKN050 17/11 Q1015 BLU BLU+ TEMPO WHT
EHDL - Deelen Rnlafb, Netherlands
Afstand tot: ZW 103 km
Gewijzigd: 17-09-2021 12:25
Bewolking  
Bewolking  
   Wind: ZW 11.1 km/h
Wind: ZW 11.1 km/h
Temperatuur: 19°C
Dauwpunt: 14°C
Vochtigheid: 73%
Barometer: 1016 hPa
Bewolking: Bewolking
Zicht: meer dan 10 km
Bewolking: Bewolking 6500 ft
EHDL 171025Z AUTO 23006KT 160V310 9999 OVC065 19/14 Q1016 BLU
EHMA - Awg-1 Sea, Netherlands
Afstand tot: NW 105 km
Gewijzigd: 17-09-2021 12:25
Licht bewolkt  
Licht bewolkt  
   Wind: OZO 9.3 km/h
Wind: OZO 9.3 km/h
Temperatuur: 17°C
Dauwpunt: 14°C
Vochtigheid: 83%
Barometer: 1016 hPa
Bewolking: Licht bewolkt
Zicht: meer dan 10 km
Bewolking: Licht bewolkt 4700 ft
EHMA 171025Z AUTO 11005KT 350V150 9999 FEW047 17/14 Q1016
EDDW - Bremen, Germany
Afstand tot: ONO 135 km
Gewijzigd: 17-09-2021 12:20
Licht bewolkt  
Licht bewolkt  
   Wind: NW 16.7 km/h
Wind: NW 16.7 km/h
Temperatuur: 17°C
Dauwpunt: 12°C
Vochtigheid: 73%
Barometer: 1015 hPa
Bewolking: Licht bewolkt
Zicht: meer dan 10 km
Bewolking: Licht bewolkt 3000 ft
EDDW 171020Z 32009KT 290V350 9999 FEW030 17/12 Q1015 NOSIG
EHVL - Vlieland Island, Netherlands
Afstand tot: WNW 138 km
Gewijzigd: 17-09-2021 12:34
Grotendeels bewolkt  
Grotendeels bewolkt  
   Wind: ZO 14.8 km/h
Wind: ZO 14.8 km/h
Temperatuur: 20°C
Dauwpunt: 17°C
Vochtigheid: 83%
Barometer: 1015 hPa
Bewolking: Grotendeels bewolkt
Zicht: meer dan 10 km
Bewolking: Gedeeltelijk bewolkt 900 ft,
Gedeeltelijk bewolkt 1200 ft,
Grotendeels bewolkt 1600 ft
EHVL 171034Z AUTO 14008KT 9999 SCT009 SCT012 BKN016 20/17 Q1015 GRN
EDLV - Niederrhein, Germany
Afstand tot: ZZW 139 km
Gewijzigd: 17-09-2021 12:20
Helder  
Helder  
   Wind: ZW 9.3 km/h
Wind: ZW 9.3 km/h
Temperatuur: 20°C
Dauwpunt: 15°C
Vochtigheid: 73%
Barometer: 1016 hPa
Zicht: meer dan 10 km
Bewolking: Helder
EDLV 171020Z 22005KT 160V270 CAVOK 20/15 Q1016
EHKD - De Kooy (navy), Netherlands
Afstand tot: W 144 km
Gewijzigd: 17-09-2021 12:25
Nevel, Grotendeels bewolkt  
Nevel, Grotendeels bewolkt  
   Wind: ZW 11.1 km/h
Wind: ZW 11.1 km/h
Temperatuur: 19°C
Dauwpunt: 17°C
Vochtigheid: 88%
Barometer: 1015 hPa
Bewolking: Grotendeels bewolkt
Zicht: 7 km
Bewolking: Gedeeltelijk bewolkt 900 ft,
Grotendeels bewolkt 1000 ft,
Grotendeels bewolkt 1400 ft,
Licht bewolkt 1500 ft
EHKD 171025Z AUTO 23006KT 190V260 7000 BR SCT009 BKN010 BKN014 FEW015CB 19/17 Q1015 GRN TEMPO SCT010 SCT015 OVC050
EDLW - Dortmund/Wickede, Germany
Afstand tot: ZZO 150 km
Gewijzigd: 17-09-2021 12:20
Grotendeels bewolkt  
Grotendeels bewolkt  
   Wind: varieert 5.6 km/h
Wind: varieert 5.6 km/h
Temperatuur: 19°C
Dauwpunt: 13°C
Vochtigheid: 68%
Barometer: 1016 hPa
Bewolking: Grotendeels bewolkt
Zicht: meer dan 10 km
Bewolking: Gedeeltelijk bewolkt 2200 ft,
Grotendeels bewolkt 3000 ft
EDLW 171020Z VRB03KT 9999 SCT022 BKN030 19/13 Q1016
EHVK - Volkel Rnlafb, Netherlands
Afstand tot: ZZW 149 km
Gewijzigd: 17-09-2021 12:25
Nevel, Bewolking  
Nevel, Bewolking  
   Wind: WZW 9.3 km/h
Wind: WZW 9.3 km/h
Temperatuur: 20°C
Dauwpunt: 15°C
Vochtigheid: 73%
Barometer: 1016 hPa
Bewolking: Bewolking
Zicht: 9 km
Bewolking: Bewolking 6800 ft
EHVK 171025Z AUTO 24005KT 200V270 9000 HZ OVC068 20/15 Q1016 BLU
EDLW - Dortmund/Wickede, Germany
Afstand tot: ZZO 150 km
Gewijzigd: 17-09-2021 12:20
Grotendeels bewolkt  
Grotendeels bewolkt  
   Wind: varieert 5.6 km/h
Wind: varieert 5.6 km/h
Temperatuur: 19°C
Dauwpunt: 13°C
Vochtigheid: 68%
Barometer: 1016 hPa
Bewolking: Grotendeels bewolkt
Zicht: meer dan 10 km
Bewolking: Gedeeltelijk bewolkt 2200 ft,
Grotendeels bewolkt 3000 ft
EDLW 171020Z VRB03KT 9999 SCT022 BKN030 19/13 Q1016
EHMG - L9-Ff-1 Sea, Netherlands
Afstand tot: NW 155 km
Gewijzigd: 17-09-2021 12:25
Gedeeltelijk bewolkt  
Gedeeltelijk bewolkt  
   Wind: ZO 13 km/h
Wind: ZO 13 km/h
Temperatuur: 17°C
Dauwpunt: 14°C
Vochtigheid: 83%
Barometer: 1016 hPa
Bewolking: Gedeeltelijk bewolkt
Zicht: meer dan 10 km
Bewolking: Gedeeltelijk bewolkt
EHMG 171025Z AUTO 14007KT 9999 NSC 17/14 Q1016
ETHB - Buckeburg(Ger-Ar, Germany
Afstand tot: OZO 161 km
Gewijzigd: 17-09-2021 12:20
Grotendeels bewolkt  
Grotendeels bewolkt  
   Wind: Noorden 13 km/h
Wind: Noorden 13 km/h
Temperatuur: 17°C
Dauwpunt: 12°C
Vochtigheid: 73%
Barometer: 1015 hPa
Bewolking: Grotendeels bewolkt
Zicht: meer dan 10 km
Bewolking: Gedeeltelijk bewolkt 1800 ft,
Grotendeels bewolkt 3000 ft,
Grotendeels bewolkt 5300 ft
ETHB 171020Z 35007KT 9999 SCT018 BKN030 BKN053 17/12 Q1015 BLU
ETMN - Nordholz (ger-Na, Germany
Afstand tot: NO 164 km
Gewijzigd: 17-09-2021 12:20
Gedeeltelijk bewolkt  
Gedeeltelijk bewolkt  
   Wind: NNW 16.7 km/h
Wind: NNW 16.7 km/h
Temperatuur: 16°C
Dauwpunt: 11°C
Vochtigheid: 72%
Barometer: 1015 hPa
Bewolking: Gedeeltelijk bewolkt
Zicht: meer dan 10 km
Bewolking: Gedeeltelijk bewolkt 1900 ft,
Gedeeltelijk bewolkt 3800 ft
ETMN 171020Z 34009KT 9999 SCT019 SCT038 16/11 Q1015 BLU+BLU
EDDL - Duesseldorf, Germany
Afstand tot: Z 165 km
Gewijzigd: 17-09-2021 12:20
Licht bewolkt  
Licht bewolkt  
   Wind: Zuiden 9.3 km/h
Wind: Zuiden 9.3 km/h
Temperatuur: 19°C
Dauwpunt: 13°C
Vochtigheid: 68%
Barometer: 1016 hPa
Bewolking: Licht bewolkt
Zicht: meer dan 10 km
Bewolking: Licht bewolkt 2400 ft
EDDL 171020Z 17005KT 140V220 9999 FEW024 19/13 Q1016 NOSIG
EDLN - Monchengladbach, Germany
Afstand tot: Z 174 km
Gewijzigd: 17-09-2021 12:20
Helder  
Helder  
   Wind: ZZW 11.1 km/h
Wind: ZZW 11.1 km/h
Temperatuur: 20°C
Dauwpunt: 14°C
Vochtigheid: 69%
Barometer: 1016 hPa
Zicht: meer dan 10 km
Bewolking: Helder
EDLN 171020Z 21006KT 180V250 CAVOK 20/14 Q1016

Script ontwikkeld door  Saratoga-weather.org Aangepast voor de template door  Weerstation Leuven

U vindt ons ook hier:

Het Weer Aktueel

European Weather Network

Weather Underground

Wetterpage 24

Apparatuur in gebruik:

Weerstation
Davis VP2

Weerprogramma
Meteohub

Hardware
RaspberryPI, Wireless Weather Envoy, MeteoStick, TP-Link MR3020

Leverancier
Weerhuisje.nl weerstations

Davis VP2

Meteohub

RaspberryPI, Wireless Weather Envoy, MeteoStick, TP-Link MR3020

Weerhuisje.nl weerstations